createdAt,value
2019-05-15T00:00:09.009Z,2.63
2019-05-15T00:02:38.860Z,2.70
2019-05-15T00:05:08.966Z,2.70
2019-05-15T00:07:39.271Z,2.53
2019-05-15T00:10:08.735Z,2.33
2019-05-15T00:12:39.446Z,2.77
2019-05-15T00:15:09.223Z,2.60
2019-05-15T00:17:39.443Z,2.40
2019-05-15T00:20:09.904Z,2.60
2019-05-15T00:22:39.054Z,2.60
2019-05-15T00:25:09.263Z,2.20
2019-05-15T00:27:38.600Z,2.60
2019-05-15T00:30:08.889Z,2.73
2019-05-15T00:32:39.396Z,2.77
2019-05-15T00:35:09.378Z,2.87
2019-05-15T00:37:38.931Z,2.60
2019-05-15T00:40:08.825Z,2.57
2019-05-15T00:42:38.333Z,2.83
2019-05-15T00:45:09.535Z,2.87
2019-05-15T00:47:39.692Z,2.83
2019-05-15T00:50:09.340Z,3.10
2019-05-15T00:52:39.131Z,2.93
2019-05-15T00:55:11.286Z,3.03
2019-05-15T00:57:39.713Z,2.90
2019-05-15T01:00:09.570Z,2.97
2019-05-15T01:02:38.799Z,2.57
2019-05-15T01:05:08.365Z,2.50
2019-05-15T01:07:39.194Z,2.73
2019-05-15T01:10:09.893Z,2.90
2019-05-15T01:12:38.224Z,2.90
2019-05-15T01:15:09.254Z,3.00
2019-05-15T01:17:39.129Z,2.70
2019-05-15T01:20:08.616Z,3.03
2019-05-15T01:22:39.335Z,3.37
2019-05-15T01:25:08.656Z,3.33
2019-05-15T01:27:38.719Z,2.87
2019-05-15T01:30:09.010Z,3.10
2019-05-15T01:32:39.488Z,2.80
2019-05-15T01:35:09.519Z,3.40
2019-05-15T01:37:39.078Z,3.20
2019-05-15T01:40:08.798Z,3.47
2019-05-15T01:42:38.633Z,3.37
2019-05-15T01:45:08.777Z,3.33
2019-05-15T01:47:38.837Z,3.00
2019-05-15T01:50:09.227Z,3.33
2019-05-15T01:52:39.058Z,3.37
2019-05-15T01:55:09.119Z,3.67
2019-05-15T01:57:38.490Z,4.30
2019-05-15T02:00:08.873Z,3.33
2019-05-15T02:02:38.919Z,3.63
2019-05-15T02:05:09.070Z,3.67
2019-05-15T02:07:39.141Z,3.50
2019-05-15T02:10:09.372Z,2.63
2019-05-15T02:12:38.917Z,2.83
2019-05-15T02:15:08.587Z,3.33
2019-05-15T02:17:39.166Z,2.83
2019-05-15T02:20:08.851Z,3.33
2019-05-15T02:22:41.887Z,3.17
2019-05-15T02:25:08.909Z,2.90
2019-05-15T02:27:39.252Z,3.50
2019-05-15T02:30:21.438Z,3.60
2019-05-15T02:32:39.708Z,3.50
2019-05-15T02:35:10.101Z,3.87
2019-05-15T02:37:40.780Z,3.83
2019-05-15T02:40:10.660Z,3.60
2019-05-15T02:42:40.196Z,3.67
2019-05-15T02:45:10.226Z,3.50
2019-05-15T02:47:39.748Z,3.43
2019-05-15T02:50:10.792Z,3.90
2019-05-15T02:52:44.436Z,3.70
2019-05-15T02:55:09.867Z,3.43
2019-05-15T02:57:39.421Z,3.40
2019-05-15T03:00:10.711Z,3.57
2019-05-15T03:02:41.372Z,3.10
2019-05-15T03:05:09.755Z,3.00
2019-05-15T03:07:40.218Z,2.97
2019-05-15T03:10:09.565Z,3.53
2019-05-15T03:12:40.549Z,3.63
2019-05-15T03:15:09.636Z,2.97
2019-05-15T03:17:40.442Z,3.73
2019-05-15T03:20:10.677Z,3.27
2019-05-15T03:22:40.526Z,4.20
2019-05-15T03:25:10.593Z,3.50
2019-05-15T03:27:40.179Z,3.90
2019-05-15T03:30:13.109Z,3.40
2019-05-15T03:32:51.984Z,3.60
2019-05-15T03:35:14.386Z,3.33
2019-05-15T03:37:40.909Z,3.23
2019-05-15T03:40:10.696Z,3.33
2019-05-15T03:42:39.929Z,3.40
2019-05-15T03:45:10.328Z,3.30
2019-05-15T03:47:40.112Z,3.70
2019-05-15T03:50:10.582Z,3.63
2019-05-15T03:52:39.861Z,3.80
2019-05-15T03:55:10.792Z,3.80
2019-05-15T03:57:40.567Z,3.20
2019-05-15T04:00:10.381Z,4.57
2019-05-15T04:02:39.681Z,3.97
2019-05-15T04:05:12.000Z,3.60
2019-05-15T04:07:39.793Z,3.80
2019-05-15T04:10:10.167Z,3.23
2019-05-15T04:12:40.469Z,3.90
2019-05-15T04:15:10.343Z,3.57
2019-05-15T04:17:40.513Z,3.80
2019-05-15T04:20:10.354Z,3.80
2019-05-15T04:22:40.424Z,3.77
2019-05-15T04:25:10.256Z,5.10
2019-05-15T04:27:40.971Z,4.53
2019-05-15T04:30:10.571Z,5.70
2019-05-15T04:32:40.430Z,5.30
2019-05-15T04:35:09.546Z,6.00
2019-05-15T04:37:40.713Z,6.40
2019-05-15T04:40:09.450Z,5.77
2019-05-15T04:42:39.790Z,5.77
2019-05-15T04:45:09.971Z,5.50
2019-05-15T04:47:39.629Z,4.97
2019-05-15T04:50:09.202Z,4.70
2019-05-15T04:52:39.366Z,4.83
2019-05-15T04:55:10.139Z,4.30
2019-05-15T04:57:40.139Z,4.50
2019-05-15T05:00:09.870Z,4.30
2019-05-15T05:02:39.929Z,4.10
2019-05-15T05:05:10.223Z,4.40
2019-05-15T05:07:39.663Z,4.73
2019-05-15T05:10:09.704Z,4.50
2019-05-15T05:12:41.546Z,4.00
2019-05-15T05:15:08.982Z,4.70
2019-05-15T05:17:39.110Z,5.83
2019-05-15T05:20:08.384Z,4.57
2019-05-15T05:22:39.264Z,4.50
2019-05-15T05:25:08.115Z,4.10
2019-05-15T05:27:38.299Z,3.83
2019-05-15T05:30:08.430Z,4.03
2019-05-15T05:32:39.136Z,4.07
2019-05-15T05:35:08.612Z,4.60
2019-05-15T05:37:38.897Z,4.27
2019-05-15T05:40:09.749Z,4.70
2019-05-15T05:42:39.170Z,4.10
2019-05-15T05:45:09.336Z,5.57
2019-05-15T05:47:38.371Z,5.83
2019-05-15T05:50:08.128Z,6.67
2019-05-15T05:52:38.870Z,6.80
2019-05-15T05:55:08.982Z,5.30
2019-05-15T05:57:38.287Z,4.43
2019-05-15T06:00:09.200Z,3.60
2019-05-15T06:02:46.876Z,2.80
2019-05-15T06:05:08.175Z,2.83
2019-05-15T06:07:38.754Z,2.43
2019-05-15T06:10:09.038Z,3.03
2019-05-15T06:12:38.956Z,2.17
2019-05-15T06:15:08.928Z,1.80
2019-05-15T06:17:39.338Z,2.60
2019-05-15T06:20:08.229Z,4.67
2019-05-15T06:22:38.819Z,4.30
2019-05-15T06:25:11.417Z,2.20
2019-05-15T06:27:39.014Z,2.23
2019-05-15T06:30:08.942Z,1.80
2019-05-15T06:32:39.736Z,1.90
2019-05-15T06:35:09.410Z,1.70
2019-05-15T06:37:39.550Z,1.80
2019-05-15T06:40:08.554Z,2.03
2019-05-15T06:42:39.502Z,2.70
2019-05-15T06:45:08.392Z,4.50
2019-05-15T06:47:39.454Z,2.10
2019-05-15T06:50:09.988Z,3.13
2019-05-15T06:52:38.400Z,4.27
2019-05-15T06:55:09.151Z,5.53
2019-05-15T06:57:39.673Z,1.90
2019-05-15T07:00:08.741Z,1.50
2019-05-15T07:02:38.296Z,1.80
2019-05-15T07:05:07.983Z,1.60
2019-05-15T07:07:38.723Z,2.27
2019-05-15T07:10:08.993Z,1.70
2019-05-15T07:12:39.070Z,1.60
2019-05-15T07:15:09.151Z,2.77
2019-05-15T07:17:39.229Z,1.80
2019-05-15T07:20:09.337Z,1.90
2019-05-15T07:22:39.255Z,1.70
2019-05-15T07:25:08.905Z,1.70
2019-05-15T07:27:38.958Z,2.27
2019-05-15T07:30:11.876Z,5.63
2019-05-15T07:32:39.886Z,4.60
2019-05-15T07:35:09.934Z,2.40
2019-05-15T07:37:38.958Z,2.97
2019-05-15T07:40:09.546Z,3.00
2019-05-15T07:42:38.822Z,1.70
2019-05-15T07:45:09.014Z,2.13
2019-05-15T07:47:38.641Z,2.70
2019-05-15T07:50:10.217Z,1.60
2019-05-15T07:52:40.084Z,1.50
2019-05-15T07:55:09.029Z,1.83
2019-05-15T07:57:39.292Z,2.60
2019-05-15T08:00:13.750Z,2.27
2019-05-15T08:02:42.336Z,1.90
2019-05-15T08:05:11.562Z,1.70
2019-05-15T08:07:40.117Z,1.70
2019-05-15T08:10:09.282Z,1.80
2019-05-15T08:12:39.222Z,1.73
2019-05-15T08:15:13.067Z,1.60
2019-05-15T08:18:00.085Z,1.50
2019-05-15T08:20:13.863Z,1.97
2019-05-15T08:22:45.770Z,1.90
2019-05-15T08:25:30.098Z,1.80
2019-05-15T08:27:43.791Z,1.50
2019-05-15T08:30:14.363Z,1.40
2019-05-15T08:32:42.890Z,1.93
2019-05-15T08:35:12.794Z,1.30
2019-05-15T08:37:41.473Z,1.33
2019-05-15T08:40:12.670Z,1.30
2019-05-15T08:42:42.047Z,1.40
2019-05-15T08:45:11.381Z,1.80
2019-05-15T08:47:39.846Z,1.60
2019-05-15T08:50:09.790Z,1.43
2019-05-15T08:52:39.286Z,1.80
2019-05-15T08:55:08.808Z,1.40
2019-05-15T09:00:32.877Z,1.40
2019-05-15T09:03:01.447Z,1.50
2019-05-15T09:05:29.847Z,1.77
2019-05-15T09:07:58.384Z,1.30
2019-05-15T09:10:28.787Z,1.33
2019-05-15T09:12:58.643Z,1.50
2019-05-15T09:15:29.319Z,1.67
2019-05-15T09:18:09.192Z,1.50
2019-05-15T09:20:28.742Z,1.30
2019-05-15T09:22:58.227Z,1.13
2019-05-15T09:25:28.750Z,1.30
2019-05-15T09:27:57.907Z,1.80
2019-05-15T09:30:28.628Z,1.60
2019-05-15T09:32:58.831Z,1.20
2019-05-15T09:35:27.829Z,1.73
2019-05-15T09:37:58.335Z,1.57
2019-05-15T09:40:41.848Z,1.70
2019-05-15T09:42:57.859Z,1.20
2019-05-15T09:45:28.534Z,1.47
2019-05-15T09:47:58.937Z,1.70
2019-05-15T09:50:28.209Z,2.00
2019-05-15T09:52:58.827Z,1.60
2019-05-15T09:55:28.545Z,1.50
2019-05-15T09:57:59.039Z,1.90
2019-05-15T10:00:29.287Z,1.93
2019-05-15T10:02:58.080Z,1.40
2019-05-15T10:05:28.104Z,1.80
2019-05-15T10:07:56.762Z,1.90
2019-05-15T10:10:25.229Z,2.17
2019-05-15T10:12:53.642Z,2.00
2019-05-15T10:15:22.195Z,2.37
2019-05-15T10:17:51.316Z,1.87
2019-05-15T10:20:20.155Z,2.03
2019-05-15T10:22:48.611Z,2.10
2019-05-15T10:25:19.031Z,1.87
2019-05-15T10:27:48.775Z,2.53
2019-05-15T10:30:18.856Z,2.77
2019-05-15T10:32:48.729Z,2.50
2019-05-15T10:35:25.469Z,2.13
2019-05-15T10:37:48.828Z,2.20
2019-05-15T10:40:20.393Z,2.30
2019-05-15T10:42:49.593Z,2.20
2019-05-15T10:45:19.221Z,2.00
2019-05-15T10:47:49.657Z,1.90
2019-05-15T10:50:19.246Z,2.10
2019-05-15T10:52:48.955Z,1.63
2019-05-15T10:55:18.931Z,1.93
2019-05-15T10:57:47.763Z,1.80
2019-05-15T11:00:19.245Z,2.73
2019-05-15T11:02:48.960Z,2.00
2019-05-15T11:05:18.009Z,2.10
2019-05-15T11:07:48.211Z,1.87
2019-05-15T11:10:18.639Z,2.03
2019-05-15T11:12:49.838Z,1.87
2019-05-15T11:15:18.681Z,1.60
2019-05-15T11:17:49.195Z,1.63
2019-05-15T11:20:19.351Z,2.33
2019-05-15T11:22:50.070Z,1.90
2019-05-15T11:25:18.653Z,1.80
2019-05-15T11:27:48.429Z,1.63
2019-05-15T11:30:19.217Z,2.00
2019-05-15T11:32:48.628Z,1.90
2019-05-15T11:35:18.580Z,1.67
2019-05-15T11:37:56.045Z,1.80
2019-05-15T11:40:18.880Z,1.93
2019-05-15T11:42:48.792Z,1.70
2019-05-15T11:45:18.658Z,1.70
2019-05-15T11:47:48.342Z,1.83
2019-05-15T11:50:20.626Z,1.67
2019-05-15T11:52:47.674Z,1.60
2019-05-15T11:55:17.216Z,1.80
2019-05-15T11:57:47.710Z,1.97
2019-05-15T12:00:26.160Z,1.73
2019-05-15T12:02:47.420Z,1.53
2019-05-15T12:05:18.257Z,2.33
2019-05-15T12:07:47.850Z,1.50
2019-05-15T12:10:18.436Z,1.67
2019-05-15T12:12:49.499Z,1.70
2019-05-15T12:15:19.146Z,1.47
2019-05-15T12:17:48.524Z,1.90
2019-05-15T12:20:19.292Z,1.50
2019-05-15T12:22:48.589Z,1.50
2019-05-15T12:25:17.467Z,1.90
2019-05-15T12:27:48.846Z,1.27
2019-05-15T12:30:19.658Z,1.50
2019-05-15T12:32:49.266Z,1.50
2019-05-15T12:35:20.456Z,1.67
2019-05-15T12:37:47.299Z,1.60
2019-05-15T13:00:19.801Z,1.90
2019-05-15T13:02:49.225Z,1.73
2019-05-15T13:05:19.234Z,1.60
2019-05-15T13:07:48.380Z,1.40
2019-05-15T13:10:18.614Z,1.67
2019-05-15T13:12:59.270Z,1.50
2019-05-15T13:15:18.974Z,1.60
2019-05-15T13:17:53.090Z,1.73
2019-05-15T13:20:18.483Z,1.83
2019-05-15T13:25:15.969Z,1.70
2019-05-15T13:27:44.459Z,1.70
2019-05-15T13:30:13.414Z,1.93
2019-05-15T13:32:41.895Z,2.03
2019-05-15T13:35:10.506Z,1.80
2019-05-15T13:37:39.242Z,1.97
2019-05-15T13:40:08.254Z,1.53
2019-05-15T13:42:38.893Z,1.60
2019-05-15T13:45:12.961Z,1.83
2019-05-15T13:47:39.757Z,1.70
2019-05-15T13:50:08.750Z,1.70
2019-05-15T13:52:39.378Z,1.30
2019-05-15T13:55:08.624Z,2.10
2019-05-15T13:57:38.331Z,1.73
2019-05-15T14:00:09.248Z,1.70
2019-05-15T14:02:38.642Z,1.57
2019-05-15T14:05:09.424Z,1.83
2019-05-15T14:07:48.932Z,1.50
2019-05-15T14:10:09.695Z,1.57
2019-05-15T14:12:38.520Z,1.50
2019-05-15T14:15:09.103Z,1.70
2019-05-15T14:17:37.788Z,1.40
2019-05-15T14:20:09.230Z,1.50
2019-05-15T14:22:38.930Z,1.50
2019-05-15T14:25:09.576Z,2.13
2019-05-15T14:27:39.785Z,1.63
2019-05-15T14:30:09.923Z,1.60
2019-05-15T14:32:39.383Z,1.53
2019-05-15T14:35:09.472Z,1.80
2019-05-15T14:37:37.935Z,1.57
2019-05-15T14:40:08.712Z,1.60
2019-05-15T14:42:39.587Z,1.50
2019-05-15T14:45:09.208Z,1.60
2019-05-15T14:47:38.857Z,1.50
2019-05-15T14:50:10.131Z,1.33
2019-05-15T14:52:38.772Z,2.67
2019-05-15T14:55:07.852Z,1.57
2019-05-15T14:57:39.157Z,1.53
2019-05-15T15:00:08.854Z,1.50
2019-05-15T15:02:38.907Z,1.70
2019-05-15T15:05:09.088Z,1.70
2019-05-15T15:07:38.445Z,1.67
2019-05-15T15:10:08.051Z,1.37
2019-05-15T15:12:39.698Z,1.70
2019-05-15T15:15:10.085Z,1.60
2019-05-15T15:17:38.906Z,1.30
2019-05-15T15:20:07.710Z,2.40
2019-05-15T15:22:36.179Z,1.70
2019-05-15T15:25:09.609Z,1.57
2019-05-15T15:27:38.733Z,1.73
2019-05-15T15:30:09.132Z,1.43
2019-05-15T15:32:38.334Z,1.77
2019-05-15T15:35:08.563Z,1.67
2019-05-15T15:37:38.307Z,1.53
2019-05-15T15:40:08.616Z,1.60
2019-05-15T15:42:39.569Z,1.87
2019-05-15T15:45:09.228Z,2.07
2019-05-15T15:47:38.938Z,1.63
2019-05-15T15:50:09.491Z,1.43
2019-05-15T15:52:38.772Z,1.50
2019-05-15T15:55:09.046Z,1.50
2019-05-15T15:57:39.701Z,1.53
2019-05-15T16:00:09.654Z,1.63
2019-05-15T16:02:41.144Z,1.97
2019-05-15T16:05:09.256Z,1.90
2019-05-15T16:07:38.158Z,1.93
2019-05-15T16:10:08.399Z,1.70
2019-05-15T16:12:38.699Z,2.10
2019-05-15T16:15:08.972Z,1.70
2019-05-15T16:17:38.624Z,2.00
2019-05-15T16:20:09.237Z,1.87
2019-05-15T16:22:38.347Z,1.93
2019-05-15T16:25:09.589Z,2.10
2019-05-15T16:27:38.630Z,2.90
2019-05-15T16:30:08.505Z,1.60
2019-05-15T16:32:38.867Z,4.27
2019-05-15T16:35:09.061Z,2.70
2019-05-15T16:37:38.756Z,2.87
2019-05-15T16:40:09.210Z,1.90
2019-05-15T16:42:38.491Z,2.03
2019-05-15T16:45:09.502Z,2.20
2019-05-15T16:47:38.755Z,2.10
2019-05-15T16:50:09.046Z,1.70
2019-05-15T16:52:38.827Z,2.03
2019-05-15T16:55:09.256Z,2.10
2019-05-15T16:57:38.758Z,3.43
2019-05-15T17:00:09.636Z,1.90
2019-05-15T17:02:39.507Z,1.60
2019-05-15T17:05:09.896Z,1.90
2019-05-15T17:07:39.023Z,1.60
2019-05-15T17:10:08.637Z,1.47
2019-05-15T17:12:38.664Z,1.67
2019-05-15T17:15:10.805Z,1.60
2019-05-15T17:17:40.130Z,2.87
2019-05-15T17:20:10.187Z,2.70
2019-05-15T17:22:38.964Z,1.70
2019-05-15T17:25:09.525Z,2.87
2019-05-15T17:27:38.160Z,5.70
2019-05-15T17:30:09.457Z,2.57
2019-05-15T17:32:39.719Z,1.40
2019-05-15T17:35:10.224Z,1.30
2019-05-15T17:37:38.836Z,1.60
2019-05-15T17:40:08.034Z,1.93
2019-05-15T17:42:38.808Z,1.70
2019-05-15T17:45:09.038Z,1.70
2019-05-15T17:47:38.782Z,1.83
2019-05-15T17:50:08.636Z,1.93
2019-05-15T17:52:38.685Z,1.57
2019-05-15T17:55:07.759Z,1.40
2019-05-15T17:57:38.710Z,1.60
2019-05-15T18:00:12.219Z,2.00
2019-05-15T18:02:38.874Z,2.93
2019-05-15T18:05:08.093Z,4.40
2019-05-15T18:07:38.833Z,1.53
2019-05-15T18:10:08.388Z,1.40
2019-05-15T18:12:38.953Z,1.40
2019-05-15T18:15:09.064Z,1.33
2019-05-15T18:17:39.233Z,1.40
2019-05-15T18:20:10.430Z,1.47
2019-05-15T18:22:38.920Z,2.53
2019-05-15T18:25:09.120Z,2.53
2019-05-15T18:27:38.864Z,2.10
2019-05-15T18:30:09.320Z,2.70
2019-05-15T18:32:39.086Z,1.80
2019-05-15T18:35:08.318Z,2.07
2019-05-15T18:37:39.439Z,6.10
2019-05-15T18:40:09.934Z,2.17
2019-05-15T18:42:39.298Z,1.60
2019-05-15T18:45:09.997Z,1.60
2019-05-15T18:47:39.123Z,1.50
2019-05-15T18:50:13.070Z,1.80
2019-05-15T18:52:39.726Z,1.77
2019-05-15T18:55:08.692Z,1.40
2019-05-15T18:57:38.497Z,1.37
2019-05-15T19:00:10.016Z,1.50
2019-05-15T19:02:39.345Z,1.90
2019-05-15T19:05:08.394Z,1.63
2019-05-15T19:07:38.418Z,4.00
2019-05-15T19:10:10.710Z,4.50
2019-05-15T19:12:39.286Z,1.70
2019-05-15T19:15:09.197Z,1.80
2019-05-15T19:17:38.843Z,1.80
2019-05-15T19:20:08.651Z,1.67
2019-05-15T19:22:40.667Z,1.47
2019-05-15T19:25:08.889Z,1.77
2019-05-15T19:27:39.017Z,1.63
2019-05-15T19:30:09.285Z,1.90
2019-05-15T19:32:38.785Z,2.23
2019-05-15T19:35:08.182Z,1.73
2019-05-15T19:37:38.375Z,1.80
2019-05-15T19:40:09.042Z,3.03
2019-05-15T19:42:38.338Z,2.40
2019-05-15T19:45:08.878Z,1.90
2019-05-15T19:47:38.818Z,2.70
2019-05-15T19:50:08.732Z,2.20
2019-05-15T19:52:37.335Z,2.00
2019-05-15T19:55:08.827Z,1.97
2019-05-15T19:57:38.930Z,1.70
2019-05-15T20:00:10.638Z,2.00
2019-05-15T20:02:38.442Z,1.60
2019-05-15T20:05:09.275Z,2.10
2019-05-15T20:07:38.985Z,2.20
2019-05-15T20:10:09.184Z,2.43
2019-05-15T20:12:39.084Z,2.10
2019-05-15T20:15:09.238Z,2.30
2019-05-15T20:17:38.654Z,2.30
2019-05-15T20:20:09.069Z,2.20
2019-05-15T20:22:40.175Z,1.83
2019-05-15T20:25:08.500Z,2.20
2019-05-15T20:27:39.196Z,1.93
2019-05-15T20:30:08.675Z,2.07
2019-05-15T20:32:38.600Z,1.80
2019-05-15T20:35:08.599Z,1.70
2019-05-15T20:37:39.137Z,3.00
2019-05-15T20:40:09.128Z,2.37
2019-05-15T20:42:38.566Z,2.10
2019-05-15T20:45:11.764Z,10.43
2019-05-15T20:47:38.979Z,4.13
2019-05-15T20:50:08.848Z,2.43
2019-05-15T20:52:39.361Z,1.90
2019-05-15T20:55:08.304Z,1.93
2019-05-15T20:57:40.117Z,2.20
2019-05-15T21:00:09.225Z,3.17
2019-05-15T21:02:38.126Z,5.27
2019-05-15T21:05:08.821Z,3.13
2019-05-15T21:07:40.067Z,2.07
2019-05-15T21:10:09.709Z,2.30
2019-05-15T21:12:41.162Z,2.30
2019-05-15T21:15:09.482Z,1.87
2019-05-15T21:17:39.425Z,2.20
2019-05-15T21:20:09.456Z,1.90
2019-05-15T21:22:40.306Z,1.83
2019-05-15T21:25:10.759Z,1.80
2019-05-15T21:27:42.451Z,2.23
2019-05-15T21:30:10.890Z,2.40
2019-05-15T21:32:39.353Z,2.10
2019-05-15T21:35:09.175Z,2.30
2019-05-15T21:37:38.926Z,2.50
2019-05-15T21:40:09.224Z,2.37
2019-05-15T21:42:38.829Z,4.07
2019-05-15T21:45:14.164Z,3.30
2019-05-15T21:47:38.957Z,2.50
2019-05-15T21:50:08.366Z,2.80
2019-05-15T21:52:39.177Z,3.33
2019-05-15T21:55:09.645Z,5.13
2019-05-15T21:57:40.448Z,2.73
2019-05-15T22:00:18.036Z,2.00
2019-05-15T22:02:49.316Z,2.37
2019-05-15T22:05:18.991Z,2.23
2019-05-15T22:07:50.914Z,2.20
2019-05-15T22:10:19.546Z,2.40
2019-05-15T22:12:48.466Z,2.17
2019-05-15T22:15:18.976Z,5.00
2019-05-15T22:17:49.378Z,2.60
2019-05-15T22:20:18.486Z,2.03
2019-05-15T22:22:50.335Z,2.43
2019-05-15T22:25:19.059Z,2.10
2019-05-15T22:27:48.663Z,3.13
2019-05-15T22:30:18.219Z,3.07
2019-05-15T22:32:49.510Z,3.10
2019-05-15T22:35:18.855Z,2.60
2019-05-15T22:37:49.175Z,2.30
2019-05-15T22:40:18.418Z,2.70
2019-05-15T22:42:48.603Z,2.60
2019-05-15T22:45:19.024Z,2.30
2019-05-15T22:47:48.363Z,2.87
2019-05-15T22:50:18.836Z,2.67
2019-05-15T22:52:49.394Z,2.40
2019-05-15T22:55:18.584Z,2.30
2019-05-15T22:57:48.081Z,2.30
2019-05-15T23:00:17.497Z,2.17
2019-05-15T23:02:48.559Z,2.47
2019-05-15T23:05:25.129Z,2.70
2019-05-15T23:07:48.219Z,2.40
2019-05-15T23:10:17.089Z,2.47
2019-05-15T23:12:45.598Z,2.40
2019-05-15T23:15:14.326Z,2.43
2019-05-15T23:17:42.753Z,3.00
2019-05-15T23:20:11.408Z,2.67
2019-05-15T23:22:39.924Z,2.30
2019-05-15T23:25:08.559Z,2.63
2019-05-15T23:27:38.212Z,3.00
2019-05-15T23:30:08.938Z,2.87
2019-05-15T23:32:39.158Z,2.30
2019-05-15T23:35:08.859Z,2.50
2019-05-15T23:37:39.216Z,2.10
2019-05-15T23:40:08.860Z,2.50
2019-05-15T23:42:39.097Z,2.50
2019-05-15T23:45:08.124Z,2.73
2019-05-15T23:47:38.367Z,3.10
2019-05-15T23:50:06.877Z,3.20
2019-05-15T23:52:35.369Z,2.87
2019-05-15T23:55:05.531Z,2.77
2019-05-15T23:57:33.941Z,3.30
